createdAt,value
2023-04-08T00:00:21.964Z,1016.14
2023-04-08T00:01:21.984Z,1016.18
2023-04-08T00:02:22.065Z,1016.17
2023-04-08T00:03:22.229Z,1016.19
2023-04-08T00:04:22.245Z,1016.23
2023-04-08T00:05:22.060Z,1016.23
2023-04-08T00:06:22.077Z,1016.27
2023-04-08T00:07:22.100Z,1016.25
2023-04-08T00:08:22.117Z,1016.30
2023-04-08T00:09:22.145Z,1016.26
2023-04-08T00:10:22.148Z,1016.29
2023-04-08T00:11:22.177Z,1016.21
2023-04-08T00:12:22.185Z,1016.25
2023-04-08T00:13:22.206Z,1016.22
2023-04-08T00:14:22.235Z,1016.18
2023-04-08T00:15:22.252Z,1016.22
2023-04-08T00:16:22.332Z,1016.21
2023-04-08T00:17:22.315Z,1016.17
2023-04-08T00:18:22.302Z,1016.19
2023-04-08T00:19:22.330Z,1016.16
2023-04-08T00:20:22.347Z,1016.17
2023-04-08T00:21:22.360Z,1016.16
2023-04-08T00:22:22.390Z,1016.22
2023-04-08T00:23:22.397Z,1016.20
2023-04-08T00:24:22.446Z,1016.23
2023-04-08T00:25:24.767Z,1016.21
2023-04-08T00:26:22.472Z,1016.22
2023-04-08T00:27:22.478Z,1016.22
2023-04-08T00:28:22.510Z,1016.23
2023-04-08T00:29:22.505Z,1016.21
2023-04-08T00:30:22.541Z,1016.16
2023-04-08T00:31:22.601Z,1016.20
2023-04-08T00:32:22.568Z,1016.20
2023-04-08T00:33:22.594Z,1016.22
2023-04-08T00:34:22.608Z,1016.21
2023-04-08T00:35:22.654Z,1016.19
2023-04-08T00:36:22.642Z,1016.21
2023-04-08T00:37:22.710Z,1016.17
2023-04-08T00:38:22.711Z,1016.15
2023-04-08T00:39:22.759Z,1016.17
2023-04-08T00:40:22.720Z,1016.18
2023-04-08T00:41:22.740Z,1016.18
2023-04-08T00:42:22.761Z,1016.19
2023-04-08T00:43:22.795Z,1016.15
2023-04-08T00:44:29.986Z,1016.16
2023-04-08T00:46:27.302Z,1016.16
2023-04-08T00:47:26.827Z,1016.12
2023-04-08T00:49:30.898Z,1016.17
2023-04-08T00:50:30.806Z,1016.20
2023-04-08T00:52:35.291Z,1016.19
2023-04-08T00:53:34.815Z,1016.20
2023-04-08T00:55:27.733Z,1016.22
2023-04-08T00:56:27.773Z,1016.23
2023-04-08T00:58:32.222Z,1016.19
2023-04-08T00:59:31.755Z,1016.16
2023-04-08T01:01:35.805Z,1016.17
2023-04-08T01:02:35.997Z,1016.20
2023-04-08T01:04:40.266Z,1016.22
2023-04-08T01:05:39.773Z,1016.20
2023-04-08T01:07:43.794Z,1016.24
2023-04-08T01:08:43.791Z,1016.24
2023-04-08T01:10:48.275Z,1016.26
2023-04-08T01:11:47.791Z,1016.28
2023-04-08T01:13:51.805Z,1016.26
2023-04-08T01:14:51.804Z,1016.23
2023-04-08T01:16:56.298Z,1016.28
2023-04-08T01:17:55.868Z,1016.29
2023-04-08T01:19:59.844Z,1016.31
2023-04-08T01:20:59.851Z,1016.33
2023-04-08T01:23:04.331Z,1016.36
2023-04-08T01:24:03.860Z,1016.35
2023-04-08T01:25:56.803Z,1016.38
2023-04-08T01:26:56.794Z,1016.36
2023-04-08T01:29:01.279Z,1016.34
2023-04-08T01:30:00.806Z,1016.36
2023-04-08T01:31:00.863Z,1016.35
2023-04-08T01:32:00.845Z,1016.34
2023-04-08T01:33:00.870Z,1016.35
2023-04-08T01:34:00.884Z,1016.38
2023-04-08T01:35:00.912Z,1016.34
2023-04-08T01:36:00.967Z,1016.34
2023-04-08T01:37:00.939Z,1016.39
2023-04-08T01:38:00.958Z,1016.43
2023-04-08T01:39:00.990Z,1016.39
2023-04-08T01:40:01.027Z,1016.40
2023-04-08T01:41:01.018Z,1016.39
2023-04-08T01:42:01.035Z,1016.38
2023-04-08T01:43:01.059Z,1016.39
2023-04-08T01:44:01.084Z,1016.43
2023-04-08T01:45:01.098Z,1016.44
2023-04-08T01:46:01.115Z,1016.43
2023-04-08T01:47:01.228Z,1016.42
2023-04-08T01:48:01.218Z,1016.41
2023-04-08T01:49:01.170Z,1016.43
2023-04-08T01:50:01.195Z,1016.42
2023-04-08T01:51:01.214Z,1016.42
2023-04-08T01:52:01.229Z,1016.38
2023-04-08T01:53:01.258Z,1016.36
2023-04-08T01:54:01.277Z,1016.36
2023-04-08T01:55:01.305Z,1016.39
2023-04-08T01:56:01.317Z,1016.41
2023-04-08T01:57:01.342Z,1016.42
2023-04-08T01:58:01.353Z,1016.40
2023-04-08T01:59:01.368Z,1016.43
2023-04-08T02:00:01.412Z,1016.43
2023-04-08T02:01:01.410Z,1016.47
2023-04-08T02:02:01.460Z,1016.45
2023-04-08T02:03:01.671Z,1016.41
2023-04-08T02:04:01.525Z,1016.43
2023-04-08T02:05:01.501Z,1016.40
2023-04-08T02:06:01.504Z,1016.42
2023-04-08T02:07:01.528Z,1016.43
2023-04-08T02:08:01.543Z,1016.41
2023-04-08T02:09:01.561Z,1016.42
2023-04-08T02:10:01.580Z,1016.40
2023-04-08T02:11:01.607Z,1016.40
2023-04-08T02:12:01.627Z,1016.38
2023-04-08T02:13:01.646Z,1016.37
2023-04-08T02:14:01.657Z,1016.39
2023-04-08T02:15:01.705Z,1016.40
2023-04-08T02:16:01.712Z,1016.39
2023-04-08T02:17:01.715Z,1016.39
2023-04-08T02:18:01.785Z,1016.39
2023-04-08T02:19:01.754Z,1016.37
2023-04-08T02:20:01.777Z,1016.35
2023-04-08T02:21:01.791Z,1016.39
2023-04-08T02:22:01.819Z,1016.42
2023-04-08T02:23:01.837Z,1016.42
2023-04-08T02:24:03.763Z,1016.48
2023-04-08T02:25:01.868Z,1016.47
2023-04-08T02:26:01.904Z,1016.51
2023-04-08T02:27:01.922Z,1016.52
2023-04-08T02:28:01.929Z,1016.51
2023-04-08T02:29:01.992Z,1016.54
2023-04-08T02:30:01.989Z,1016.56
2023-04-08T02:31:02.025Z,1016.57
2023-04-08T02:32:02.012Z,1016.53
2023-04-08T02:33:02.042Z,1016.54
2023-04-08T02:34:02.058Z,1016.57
2023-04-08T02:35:02.123Z,1016.57
2023-04-08T02:36:02.136Z,1016.57
2023-04-08T02:37:02.104Z,1016.61
2023-04-08T02:38:02.159Z,1016.54
2023-04-08T02:39:02.147Z,1016.59
2023-04-08T02:40:02.171Z,1016.60
2023-04-08T02:41:02.203Z,1016.57
2023-04-08T02:42:02.226Z,1016.60
2023-04-08T02:43:02.224Z,1016.60
2023-04-08T02:44:02.243Z,1016.58
2023-04-08T02:45:02.272Z,1016.57
2023-04-08T02:46:02.482Z,1016.62
2023-04-08T02:47:02.305Z,1016.57
2023-04-08T02:48:02.429Z,1016.56
2023-04-08T02:49:02.341Z,1016.53
2023-04-08T02:50:02.361Z,1016.55
2023-04-08T02:51:02.395Z,1016.56
2023-04-08T02:52:02.402Z,1016.52
2023-04-08T02:53:02.420Z,1016.54
2023-04-08T02:54:02.441Z,1016.51
2023-04-08T02:55:02.482Z,1016.52
2023-04-08T02:56:02.489Z,1016.47
2023-04-08T02:57:02.508Z,1016.55
2023-04-08T02:58:02.536Z,1016.57
2023-04-08T02:59:02.538Z,1016.58
2023-04-08T03:00:02.563Z,1016.56
2023-04-08T03:01:02.628Z,1016.56
2023-04-08T03:02:02.664Z,1016.61
2023-04-08T03:03:02.704Z,1016.59
2023-04-08T03:04:02.717Z,1016.57
2023-04-08T03:05:02.657Z,1016.57
2023-04-08T03:06:02.678Z,1016.63
2023-04-08T03:07:02.712Z,1016.63
2023-04-08T03:08:02.721Z,1016.66
2023-04-08T03:09:02.734Z,1016.65
2023-04-08T03:10:02.767Z,1016.69
2023-04-08T03:11:02.779Z,1016.68
2023-04-08T03:12:02.798Z,1016.67
2023-04-08T03:13:02.819Z,1016.67
2023-04-08T03:14:02.837Z,1016.66
2023-04-08T03:15:02.859Z,1016.69
2023-04-08T03:16:02.879Z,1016.74
2023-04-08T03:17:02.999Z,1016.72
2023-04-08T03:18:02.991Z,1016.70
2023-04-08T03:19:02.945Z,1016.70
2023-04-08T03:20:02.958Z,1016.74
2023-04-08T03:21:02.999Z,1016.70
2023-04-08T03:22:02.997Z,1016.72
2023-04-08T03:23:03.018Z,1016.71
2023-04-08T03:24:03.052Z,1016.74
2023-04-08T03:25:03.053Z,1016.77
2023-04-08T03:26:03.094Z,1016.76
2023-04-08T03:27:03.117Z,1016.73
2023-04-08T03:28:03.138Z,1016.75
2023-04-08T03:29:03.140Z,1016.77
2023-04-08T03:30:03.174Z,1016.77
2023-04-08T03:31:03.178Z,1016.80
2023-04-08T03:32:03.287Z,1016.78
2023-04-08T03:33:03.928Z,1016.77
2023-04-08T03:34:03.241Z,1016.79
2023-04-08T03:35:03.275Z,1016.78
2023-04-08T03:36:03.338Z,1016.74
2023-04-08T03:37:03.323Z,1016.74
2023-04-08T03:38:03.332Z,1016.76
2023-04-08T03:39:03.344Z,1016.72
2023-04-08T03:40:03.364Z,1016.70
2023-04-08T03:41:03.377Z,1016.71
2023-04-08T03:42:03.401Z,1016.68
2023-04-08T03:43:03.418Z,1016.69
2023-04-08T03:44:03.454Z,1016.70
2023-04-08T03:45:03.459Z,1016.69
2023-04-08T03:46:03.518Z,1016.67
2023-04-08T03:47:03.505Z,1016.67
2023-04-08T03:48:03.675Z,1016.66
2023-04-08T03:49:03.540Z,1016.69
2023-04-08T03:50:03.562Z,1016.64
2023-04-08T03:51:03.587Z,1016.65
2023-04-08T03:52:03.619Z,1016.68
2023-04-08T03:53:03.619Z,1016.65
2023-04-08T03:54:03.641Z,1016.66
2023-04-08T03:55:03.672Z,1016.69
2023-04-08T03:56:03.694Z,1016.72
2023-04-08T03:57:03.700Z,1016.71
2023-04-08T03:58:03.721Z,1016.78
2023-04-08T03:59:03.740Z,1016.76
2023-04-08T04:00:03.831Z,1016.79
2023-04-08T04:01:03.780Z,1016.79
2023-04-08T04:02:03.842Z,1016.74
2023-04-08T04:03:03.852Z,1016.76
2023-04-08T04:04:04.011Z,1016.76
2023-04-08T04:05:04.002Z,1016.77
2023-04-08T04:06:03.882Z,1016.80
2023-04-08T04:07:03.899Z,1016.78
2023-04-08T04:08:03.924Z,1016.80
2023-04-08T04:09:03.939Z,1016.84
2023-04-08T04:10:03.964Z,1016.79
2023-04-08T04:11:03.978Z,1016.82
2023-04-08T04:12:04.000Z,1016.86
2023-04-08T04:13:04.023Z,1016.87
2023-04-08T04:14:04.041Z,1016.86
2023-04-08T04:15:04.058Z,1016.91
2023-04-08T04:16:04.132Z,1016.91
2023-04-08T04:17:04.098Z,1016.96
2023-04-08T04:18:04.180Z,1016.97
2023-04-08T04:19:04.186Z,1016.96
2023-04-08T04:20:04.189Z,1016.99
2023-04-08T04:21:04.174Z,1016.99
2023-04-08T04:22:04.198Z,1017.02
2023-04-08T04:23:04.218Z,1017.02
2023-04-08T04:24:04.250Z,1017.02
2023-04-08T04:25:04.262Z,1017.01
2023-04-08T04:26:04.273Z,1017.01
2023-04-08T04:27:04.293Z,1017.03
2023-04-08T04:28:04.347Z,1017.07
2023-04-08T04:29:04.335Z,1017.05
2023-04-08T04:30:04.350Z,1017.05
2023-04-08T04:31:04.426Z,1017.01
2023-04-08T04:32:04.394Z,1017.05
2023-04-08T04:33:04.459Z,1017.03
2023-04-08T04:34:04.427Z,1017.04
2023-04-08T04:35:04.447Z,1017.04
2023-04-08T04:36:04.499Z,1017.05
2023-04-08T04:37:04.492Z,1017.04
2023-04-08T04:38:04.506Z,1017.06
2023-04-08T04:39:04.534Z,1017.05
2023-04-08T04:40:04.560Z,1017.05
2023-04-08T04:41:04.572Z,1017.07
2023-04-08T04:42:04.602Z,1017.05
2023-04-08T04:43:04.623Z,1017.03
2023-04-08T04:44:04.630Z,1017.02
2023-04-08T04:45:04.657Z,1016.96
2023-04-08T04:46:04.694Z,1017.02
2023-04-08T04:47:04.705Z,1017.02
2023-04-08T04:48:04.737Z,1017.01
2023-04-08T04:49:04.732Z,1016.99
2023-04-08T04:50:04.745Z,1017.02
2023-04-08T04:51:04.765Z,1017.00
2023-04-08T04:52:04.801Z,1017.04
2023-04-08T04:53:04.812Z,1017.05
2023-04-08T04:54:04.828Z,1017.03
2023-04-08T04:55:04.848Z,1017.05
2023-04-08T04:56:04.875Z,1016.99
2023-04-08T04:57:04.878Z,1017.02
2023-04-08T04:58:04.902Z,1017.00
2023-04-08T04:59:04.934Z,1017.04
2023-04-08T05:00:05.826Z,1017.07
2023-04-08T05:01:04.963Z,1017.09
2023-04-08T05:02:05.044Z,1017.10
2023-04-08T05:03:05.096Z,1017.10
2023-04-08T05:04:05.030Z,1017.09
2023-04-08T05:05:05.098Z,1017.12
2023-04-08T05:06:05.071Z,1017.12
2023-04-08T05:07:05.086Z,1017.11
2023-04-08T05:08:05.109Z,1017.12
2023-04-08T05:09:05.121Z,1017.10
2023-04-08T05:10:05.163Z,1017.10
2023-04-08T05:11:05.169Z,1017.13
2023-04-08T05:12:05.191Z,1017.07
2023-04-08T05:13:05.207Z,1017.10
2023-04-08T05:14:05.230Z,1017.10
2023-04-08T05:15:05.253Z,1017.11
2023-04-08T05:16:05.309Z,1017.15
2023-04-08T05:17:05.288Z,1017.17
2023-04-08T05:18:05.362Z,1017.18
2023-04-08T05:19:05.324Z,1017.22
2023-04-08T05:20:05.353Z,1017.24
2023-04-08T05:21:05.374Z,1017.23
2023-04-08T05:22:05.385Z,1017.21
2023-04-08T05:23:05.407Z,1017.23
2023-04-08T05:24:05.428Z,1017.28
2023-04-08T05:25:05.461Z,1017.27
2023-04-08T05:26:05.467Z,1017.29
2023-04-08T05:27:05.491Z,1017.30
2023-04-08T05:28:05.516Z,1017.29
2023-04-08T05:29:05.540Z,1017.32
2023-04-08T05:30:05.550Z,1017.29
2023-04-08T05:31:05.604Z,1017.31
2023-04-08T05:32:05.594Z,1017.32
2023-04-08T05:33:05.665Z,1017.29
2023-04-08T05:34:05.624Z,1017.33
2023-04-08T05:35:05.663Z,1017.35
2023-04-08T05:36:05.737Z,1017.36
2023-04-08T05:37:05.688Z,1017.41
2023-04-08T05:38:05.707Z,1017.41
2023-04-08T05:39:05.726Z,1017.44
2023-04-08T05:40:05.761Z,1017.44
2023-04-08T05:41:05.769Z,1017.39
2023-04-08T05:42:05.787Z,1017.42
2023-04-08T05:43:05.803Z,1017.41
2023-04-08T05:44:05.838Z,1017.41
2023-04-08T05:45:05.848Z,1017.44
2023-04-08T05:46:05.865Z,1017.43
2023-04-08T05:47:06.032Z,1017.47
2023-04-08T05:48:05.933Z,1017.48
2023-04-08T05:49:05.922Z,1017.50
2023-04-08T05:50:05.950Z,1017.53
2023-04-08T05:51:05.962Z,1017.55
2023-04-08T05:52:05.983Z,1017.56
2023-04-08T05:53:06.002Z,1017.55
2023-04-08T05:54:06.021Z,1017.57
2023-04-08T05:55:06.047Z,1017.59
2023-04-08T05:56:06.058Z,1017.62
2023-04-08T05:57:06.085Z,1017.62
2023-04-08T05:58:06.104Z,1017.63
2023-04-08T05:59:06.115Z,1017.62
2023-04-08T06:00:06.151Z,1017.62
2023-04-08T06:01:06.150Z,1017.67
2023-04-08T06:02:06.298Z,1017.67
2023-04-08T06:03:06.339Z,1017.67
2023-04-08T06:04:06.319Z,1017.66
2023-04-08T06:05:06.274Z,1017.64
2023-04-08T06:06:06.253Z,1017.67
2023-04-08T06:07:06.295Z,1017.67
2023-04-08T06:08:06.296Z,1017.72
2023-04-08T06:09:06.310Z,1017.72
2023-04-08T06:10:06.332Z,1017.74
2023-04-08T06:11:06.351Z,1017.72
2023-04-08T06:12:06.370Z,1017.70
2023-04-08T06:13:06.410Z,1017.71
2023-04-08T06:14:06.420Z,1017.70
2023-04-08T06:15:06.435Z,1017.68
2023-04-08T06:16:06.472Z,1017.76
2023-04-08T06:17:06.492Z,1017.75
2023-04-08T06:18:06.578Z,1017.75
2023-04-08T06:19:06.507Z,1017.75
2023-04-08T06:20:06.533Z,1017.79
2023-04-08T06:21:06.550Z,1017.81
2023-04-08T06:22:06.575Z,1017.83
2023-04-08T06:23:06.607Z,1017.82
2023-04-08T06:24:06.609Z,1017.83
2023-04-08T06:25:06.650Z,1017.84
2023-04-08T06:26:06.649Z,1017.86
2023-04-08T06:27:06.677Z,1017.88
2023-04-08T06:28:06.694Z,1017.87
2023-04-08T06:29:06.902Z,1017.84
2023-04-08T06:30:06.747Z,1017.86
2023-04-08T06:31:06.767Z,1017.85
2023-04-08T06:32:06.810Z,1017.87
2023-04-08T06:33:06.794Z,1017.94
2023-04-08T06:34:06.810Z,1017.95
2023-04-08T06:35:06.835Z,1017.99
2023-04-08T06:36:06.883Z,1017.98
2023-04-08T06:37:06.879Z,1017.97
2023-04-08T06:38:06.890Z,1017.97
2023-04-08T06:39:06.910Z,1018.02
2023-04-08T06:40:06.933Z,1018.02
2023-04-08T06:41:06.959Z,1018.06
2023-04-08T06:42:06.983Z,1018.04
2023-04-08T06:43:07.150Z,1018.03
2023-04-08T06:44:07.010Z,1018.10
2023-04-08T06:45:07.031Z,1018.11
2023-04-08T06:46:07.103Z,1018.17
2023-04-08T06:47:07.072Z,1018.21
2023-04-08T06:48:07.132Z,1018.21
2023-04-08T06:49:07.115Z,1018.23
2023-04-08T06:50:07.131Z,1018.24
2023-04-08T06:51:07.162Z,1018.32
2023-04-08T06:52:07.176Z,1018.28
2023-04-08T06:53:07.205Z,1018.29
2023-04-08T06:54:07.213Z,1018.33
2023-04-08T06:55:07.229Z,1018.30
2023-04-08T06:56:07.258Z,1018.38
2023-04-08T06:57:07.273Z,1018.36
2023-04-08T06:58:07.292Z,1018.39
2023-04-08T06:59:07.313Z,1018.32
2023-04-08T07:00:07.333Z,1018.37
2023-04-08T07:01:07.400Z,1018.34
2023-04-08T07:02:07.413Z,1018.40
2023-04-08T07:03:07.451Z,1018.35
2023-04-08T07:04:07.471Z,1018.39
2023-04-08T07:05:07.432Z,1018.39
2023-04-08T07:06:07.462Z,1018.38
2023-04-08T07:07:07.476Z,1018.38
2023-04-08T07:08:07.495Z,1018.36
2023-04-08T07:09:07.515Z,1018.40
2023-04-08T07:10:10.370Z,1018.41
2023-04-08T07:11:07.804Z,1018.42
2023-04-08T07:12:07.595Z,1018.43
2023-04-08T07:13:07.595Z,1018.41
2023-04-08T07:14:07.624Z,1018.40
2023-04-08T07:15:07.640Z,1018.44
2023-04-08T07:16:07.656Z,1018.52
2023-04-08T07:17:07.821Z,1018.52
2023-04-08T07:18:07.697Z,1018.55
2023-04-08T07:19:07.723Z,1018.53
2023-04-08T07:20:07.742Z,1018.52
2023-04-08T07:21:07.757Z,1018.51
2023-04-08T07:22:07.778Z,1018.58
2023-04-08T07:23:07.798Z,1018.56
2023-04-08T07:24:07.823Z,1018.56
2023-04-08T07:25:07.853Z,1018.63
2023-04-08T07:26:07.872Z,1018.60
2023-04-08T07:27:07.880Z,1018.57
2023-04-08T07:28:07.902Z,1018.59
2023-04-08T07:29:07.923Z,1018.63
2023-04-08T07:30:07.961Z,1018.60
2023-04-08T07:31:07.981Z,1018.62
2023-04-08T07:32:07.985Z,1018.61
2023-04-08T07:33:08.062Z,1018.59
2023-04-08T07:34:08.028Z,1018.69
2023-04-08T07:35:08.058Z,1018.66
2023-04-08T07:36:08.072Z,1018.61
2023-04-08T07:37:08.091Z,1018.60
2023-04-08T07:38:08.113Z,1018.61
2023-04-08T07:39:08.131Z,1018.59
2023-04-08T07:40:08.156Z,1018.59
2023-04-08T07:41:08.165Z,1018.62
2023-04-08T07:42:08.189Z,1018.60
2023-04-08T07:43:08.207Z,1018.58
2023-04-08T07:44:08.230Z,1018.62
2023-04-08T07:45:08.260Z,1018.67
2023-04-08T07:46:08.309Z,1018.64
2023-04-08T07:47:08.293Z,1018.65
2023-04-08T07:48:08.357Z,1018.66
2023-04-08T07:49:08.333Z,1018.62
2023-04-08T07:50:08.371Z,1018.66
2023-04-08T07:51:11.116Z,1018.68
2023-04-08T07:52:08.394Z,1018.69
2023-04-08T07:53:08.414Z,1018.74
2023-04-08T07:54:08.433Z,1018.67
2023-04-08T07:55:08.455Z,1018.69
2023-04-08T07:56:08.476Z,1018.71
2023-04-08T07:57:08.506Z,1018.75
2023-04-08T07:58:08.516Z,1018.76
2023-04-08T07:59:08.545Z,1018.80
2023-04-08T08:00:08.559Z,1018.78
2023-04-08T08:01:08.578Z,1018.79
2023-04-08T08:02:08.686Z,1018.80
2023-04-08T08:03:08.684Z,1018.79
2023-04-08T08:04:08.727Z,1018.77
2023-04-08T08:05:08.700Z,1018.81
2023-04-08T08:06:08.685Z,1018.79
2023-04-08T08:07:08.705Z,1018.78
2023-04-08T08:08:08.725Z,1018.82
2023-04-08T08:09:08.747Z,1018.83
2023-04-08T08:10:08.763Z,1018.83
2023-04-08T08:11:08.788Z,1018.83
2023-04-08T08:12:08.811Z,1018.80
2023-04-08T08:13:08.832Z,1018.83
2023-04-08T08:14:08.865Z,1018.82
2023-04-08T08:15:08.876Z,1018.83
2023-04-08T08:16:09.306Z,1018.80
2023-04-08T08:17:08.917Z,1018.86
2023-04-08T08:18:08.975Z,1018.84
2023-04-08T08:19:08.975Z,1018.91
2023-04-08T08:20:08.983Z,1018.91
2023-04-08T08:21:09.046Z,1018.93
2023-04-08T08:22:09.025Z,1018.97
2023-04-08T08:23:09.061Z,1018.98
2023-04-08T08:24:09.087Z,1018.96
2023-04-08T08:25:09.096Z,1018.92
2023-04-08T08:26:09.120Z,1018.94
2023-04-08T08:27:09.144Z,1018.96
2023-04-08T08:28:09.160Z,1018.98
2023-04-08T08:29:09.181Z,1019.02
2023-04-08T08:30:09.204Z,1019.05
2023-04-08T08:31:09.256Z,1019.01
2023-04-08T08:32:09.251Z,1019.04
2023-04-08T08:33:09.297Z,1018.98
2023-04-08T08:34:09.294Z,1019.01
2023-04-08T08:35:09.319Z,1019.00
2023-04-08T08:36:09.383Z,1019.01
2023-04-08T08:37:09.359Z,1019.04
2023-04-08T08:38:09.381Z,1019.09
2023-04-08T08:39:09.404Z,1019.04
2023-04-08T08:40:09.426Z,1019.06
2023-04-08T08:41:09.445Z,1019.02
2023-04-08T08:42:09.470Z,1019.08
2023-04-08T08:43:09.493Z,1019.05
2023-04-08T08:44:09.518Z,1019.05
2023-04-08T08:45:09.534Z,1019.08
2023-04-08T08:46:09.583Z,1019.02
2023-04-08T08:47:09.579Z,1019.02
2023-04-08T08:48:09.611Z,1019.06
2023-04-08T08:49:09.621Z,1019.06
2023-04-08T08:50:09.658Z,1019.04
2023-04-08T08:51:09.669Z,1019.08
2023-04-08T08:52:09.687Z,1019.09
2023-04-08T08:53:09.723Z,1019.09
2023-04-08T08:54:09.731Z,1019.09
2023-04-08T08:55:27.708Z,1019.14
2023-04-08T08:57:09.799Z,1019.17
2023-04-08T08:58:09.823Z,1019.14
2023-04-08T08:59:09.844Z,1019.15
2023-04-08T09:00:09.867Z,1019.22
2023-04-08T09:01:09.888Z,1019.24
2023-04-08T09:02:09.947Z,1019.25
2023-04-08T09:03:10.054Z,1019.24
2023-04-08T09:04:10.117Z,1019.23
2023-04-08T09:05:10.096Z,1019.20
2023-04-08T09:06:11.673Z,1019.26
2023-04-08T09:07:10.048Z,1019.20
2023-04-08T09:08:10.046Z,1019.22
2023-04-08T09:09:10.170Z,1019.19
2023-04-08T09:10:10.097Z,1019.21
2023-04-08T09:11:10.114Z,1019.26
2023-04-08T09:12:10.133Z,1019.22
2023-04-08T09:13:10.158Z,1019.21
2023-04-08T09:14:10.181Z,1019.21
2023-04-08T09:15:10.210Z,1019.27
2023-04-08T09:16:10.361Z,1019.30
2023-04-08T09:17:10.247Z,1019.26
2023-04-08T09:18:10.269Z,1019.34
2023-04-08T09:19:10.293Z,1019.30
2023-04-08T09:20:10.319Z,1019.35
2023-04-08T09:21:10.341Z,1019.34
2023-04-08T09:22:10.361Z,1019.33
2023-04-08T09:23:10.384Z,1019.30
2023-04-08T09:24:10.405Z,1019.33
2023-04-08T09:25:10.433Z,1019.27
2023-04-08T09:26:10.471Z,1019.27
2023-04-08T09:27:10.482Z,1019.24
2023-04-08T09:28:10.498Z,1019.26
2023-04-08T09:29:24.453Z,1019.30
2023-04-08T09:30:10.545Z,1019.28
2023-04-08T09:31:10.594Z,1019.22
2023-04-08T09:32:10.593Z,1019.25
2023-04-08T09:33:10.611Z,1019.24
2023-04-08T09:34:10.644Z,1019.25
2023-04-08T09:35:10.659Z,1019.22
2023-04-08T09:36:10.706Z,1019.24
2023-04-08T09:37:10.705Z,1019.22
2023-04-08T09:38:10.732Z,1019.25
2023-04-08T09:39:10.758Z,1019.22
2023-04-08T09:40:11.751Z,1019.26
2023-04-08T09:41:10.798Z,1019.26
2023-04-08T09:42:10.818Z,1019.25
2023-04-08T09:43:10.842Z,1019.25
2023-04-08T09:44:10.867Z,1019.27
2023-04-08T09:45:10.891Z,1019.25
2023-04-08T09:46:10.961Z,1019.25
2023-04-08T09:47:10.935Z,1019.26
2023-04-08T09:48:10.961Z,1019.29
2023-04-08T09:49:10.997Z,1019.26
2023-04-08T09:50:11.006Z,1019.22
2023-04-08T09:51:11.028Z,1019.25
2023-04-08T09:52:11.052Z,1019.27
2023-04-08T09:53:11.078Z,1019.31
2023-04-08T09:54:11.102Z,1019.30
2023-04-08T09:55:11.129Z,1019.30
2023-04-08T09:56:11.147Z,1019.28
2023-04-08T09:57:11.168Z,1019.26
2023-04-08T09:58:11.209Z,1019.24
2023-04-08T09:59:11.219Z,1019.26
2023-04-08T10:00:11.248Z,1019.27
2023-04-08T10:01:11.312Z,1019.26
2023-04-08T10:02:11.396Z,1019.26
2023-04-08T10:03:11.474Z,1019.24
2023-04-08T10:04:11.381Z,1019.24
2023-04-08T10:05:11.417Z,1019.22
2023-04-08T10:06:11.386Z,1019.21
2023-04-08T10:07:11.410Z,1019.23
2023-04-08T10:08:11.434Z,1019.22
2023-04-08T10:09:11.455Z,1019.21
2023-04-08T10:10:11.479Z,1019.21
2023-04-08T10:11:11.512Z,1019.21
2023-04-08T10:12:11.536Z,1019.24
2023-04-08T10:13:11.554Z,1019.28
2023-04-08T10:14:11.577Z,1019.25
2023-04-08T10:15:11.598Z,1019.27
2023-04-08T10:16:11.667Z,1019.26
2023-04-08T10:17:11.648Z,1019.26
2023-04-08T10:18:11.697Z,1019.29
2023-04-08T10:19:11.698Z,1019.30
2023-04-08T10:20:11.721Z,1019.30
2023-04-08T10:21:11.750Z,1019.30
2023-04-08T10:22:11.771Z,1019.29
2023-04-08T10:23:11.793Z,1019.24
2023-04-08T10:24:11.925Z,1019.27
2023-04-08T10:25:11.844Z,1019.30
2023-04-08T10:26:11.869Z,1019.32
2023-04-08T10:27:11.888Z,1019.32
2023-04-08T10:28:12.099Z,1019.30
2023-04-08T10:29:11.944Z,1019.31
2023-04-08T10:30:11.962Z,1019.32
2023-04-08T10:31:11.994Z,1019.33
2023-04-08T10:32:12.189Z,1019.36
2023-04-08T10:33:12.036Z,1019.33
2023-04-08T10:34:12.060Z,1019.36
2023-04-08T10:35:12.082Z,1019.36
2023-04-08T10:36:12.156Z,1019.39
2023-04-08T10:37:12.135Z,1019.36
2023-04-08T10:38:12.154Z,1019.40
2023-04-08T10:39:12.182Z,1019.41
2023-04-08T10:40:12.206Z,1019.37
2023-04-08T10:41:12.230Z,1019.36
2023-04-08T10:42:12.269Z,1019.39
2023-04-08T10:43:12.283Z,1019.40
2023-04-08T10:44:12.307Z,1019.40
2023-04-08T10:45:12.339Z,1019.43
2023-04-08T10:46:12.374Z,1019.39
2023-04-08T10:47:12.377Z,1019.38
2023-04-08T10:48:12.407Z,1019.39
2023-04-08T10:49:12.436Z,1019.34
2023-04-08T10:50:12.448Z,1019.34
2023-04-08T10:51:12.474Z,1019.34
2023-04-08T10:52:12.501Z,1019.33
2023-04-08T10:53:12.519Z,1019.32
2023-04-08T10:54:12.550Z,1019.35
2023-04-08T10:55:12.575Z,1019.34
2023-04-08T10:56:12.629Z,1019.34
2023-04-08T10:57:12.621Z,1019.36
2023-04-08T10:58:12.659Z,1019.37
2023-04-08T10:59:12.669Z,1019.36
2023-04-08T11:00:12.698Z,1019.36
2023-04-08T11:01:12.740Z,1019.36
2023-04-08T11:02:12.910Z,1019.37
2023-04-08T11:03:15.065Z,1019.35
2023-04-08T11:04:12.875Z,1019.43
2023-04-08T11:05:12.829Z,1019.43
2023-04-08T11:06:12.847Z,1019.41
2023-04-08T11:07:12.865Z,1019.38
2023-04-08T11:08:12.889Z,1019.40
2023-04-08T11:09:12.917Z,1019.35
2023-04-08T11:10:12.944Z,1019.31
2023-04-08T11:11:12.967Z,1019.35
2023-04-08T11:12:12.986Z,1019.32
2023-04-08T11:13:13.019Z,1019.38
2023-04-08T11:14:13.033Z,1019.38
2023-04-08T11:15:13.057Z,1019.36
2023-04-08T11:16:18.350Z,1019.34
2023-04-08T11:17:13.108Z,1019.35
2023-04-08T11:18:13.128Z,1019.35
2023-04-08T11:19:13.152Z,1019.37
2023-04-08T11:20:13.180Z,1019.42
2023-04-08T11:21:13.205Z,1019.37
2023-04-08T11:22:13.241Z,1019.38
2023-04-08T11:23:13.247Z,1019.32
2023-04-08T11:24:13.340Z,1019.38
2023-04-08T11:25:13.299Z,1019.39
2023-04-08T11:26:13.319Z,1019.38
2023-04-08T11:27:13.343Z,1019.37
2023-04-08T11:28:13.366Z,1019.35
2023-04-08T11:29:13.398Z,1019.39
2023-04-08T11:30:13.417Z,1019.38
2023-04-08T11:31:13.562Z,1019.37
2023-04-08T11:32:13.464Z,1019.31
2023-04-08T11:33:13.485Z,1019.35
2023-04-08T11:34:13.518Z,1019.33
2023-04-08T11:35:13.535Z,1019.32
2023-04-08T11:36:13.576Z,1019.26
2023-04-08T11:37:13.587Z,1019.24
2023-04-08T11:38:13.620Z,1019.31
2023-04-08T11:39:13.629Z,1019.28
2023-04-08T11:40:13.672Z,1019.31
2023-04-08T11:41:13.677Z,1019.45
2023-04-08T11:42:13.706Z,1019.31
2023-04-08T11:43:13.725Z,1019.30
2023-04-08T11:44:13.750Z,1019.35
2023-04-08T11:45:13.786Z,1019.33
2023-04-08T11:46:13.806Z,1019.39
2023-04-08T11:47:13.822Z,1019.38
2023-04-08T11:48:13.919Z,1019.37
2023-04-08T11:49:13.879Z,1019.34
2023-04-08T11:50:13.957Z,1019.31
2023-04-08T11:51:13.926Z,1019.29
2023-04-08T11:52:13.942Z,1019.29
2023-04-08T11:53:13.977Z,1019.34
2023-04-08T11:54:13.992Z,1019.33
2023-04-08T11:55:14.018Z,1019.35
2023-04-08T11:56:14.036Z,1019.34
2023-04-08T11:57:14.058Z,1019.35
2023-04-08T11:58:14.084Z,1019.38
2023-04-08T11:59:14.112Z,1019.38
2023-04-08T12:00:14.138Z,1019.41
2023-04-08T12:01:14.162Z,1019.47
2023-04-08T12:02:14.219Z,1019.42
2023-04-08T12:03:14.325Z,1019.46
2023-04-08T12:04:14.324Z,1019.42
2023-04-08T12:05:14.456Z,1019.44
2023-04-08T12:06:14.274Z,1019.43
2023-04-08T12:07:14.318Z,1019.43
2023-04-08T12:08:14.326Z,1019.44
2023-04-08T12:09:14.349Z,1019.47
2023-04-08T12:10:14.378Z,1019.47
2023-04-08T12:11:20.057Z,1019.50
2023-04-08T12:12:14.427Z,1019.43
2023-04-08T12:13:14.449Z,1019.50
2023-04-08T12:14:14.470Z,1019.49
2023-04-08T12:15:14.492Z,1019.49
2023-04-08T12:16:14.618Z,1019.45
2023-04-08T12:17:14.541Z,1019.48
2023-04-08T12:18:14.574Z,1019.50
2023-04-08T12:19:14.591Z,1019.49
2023-04-08T12:20:14.617Z,1019.48
2023-04-08T12:21:14.637Z,1019.50
2023-04-08T12:22:14.661Z,1019.55